Time;durP1;ratioP1;P1;durP2;ratioP2;P2;SDS_P1;SDS_P2;PMS_P1;PMS_P2;Temp;Humidity;BMP_temperature;BMP_pressure;BME280_temperature;BME280_humidity;BME280_pressure;Samples;Min_cycle;Max_cycle;Signal;HPM_P1;HPM_P2
2022/01/25 00:08:21;;;;;;;;;;;;;;;;;;5071397;28;19928;-83
2022/01/25 00:26:39;;;;;;;;;;;;;;;;;;5077433;28;20519;-84
2022/01/25 00:29:30;;;;;;;;;;;;;;;;;;5083067;28;19931;-84
2022/01/25 00:31:57;;;;;;;;;;;;;;;;;;5062472;28;19924;-84
2022/01/25 00:34:23;;;;;;;;;;;;;;;;;;5067364;28;20682;-84
2022/01/25 00:36:49;;;;;;;;;;;;;;;;;;5049599;28;20375;-83
2022/01/25 00:39:17;;;;;;;;;;;;;;;;;;5069801;28;20347;-84
2022/01/25 00:41:43;;;;;;;;;;;;;;;;;;5062968;28;19927;-84
2022/01/25 00:44:11;;;;;;;;;;;;;;;;;;5067239;28;20432;-84
2022/01/25 00:46:42;;;;;;;;;;;;;;;;;;5064412;28;20026;-84
2022/01/25 00:49:12;;;;;;;;;;;;;;;;;;5066902;28;20015;-84
2022/01/25 00:56:55;;;;;;;;;;;;;;;;;;5070192;28;20658;-84
2022/01/25 00:59:23;;;;;;;;;;;;;;;;;;5065466;28;20352;-84
2022/01/25 01:01:50;;;;;;;;;;;;;;;;;;5043044;28;20373;-84
2022/01/25 01:04:16;;;;;;;;;;;;;;;;;;5064832;28;19992;-83
2022/01/25 01:06:44;;;;;;;;;;;;;;;;;;5044997;28;19924;-83
2022/01/25 01:09:11;;;;;;;;;;;;;;;;;;5050666;28;20413;-83
2022/01/25 01:11:45;;;;;;;;;;;;;;;;;;5062914;28;19931;-83
2022/01/25 01:14:26;;;;;;;;;;;;;;;;;;5063878;28;19928;-83
2022/01/25 01:17:16;;;;;;;;;;;;;;;;;;5059049;28;19920;-83
2022/01/25 01:45:06;;;;;;;;;;;;;;;;;;5063275;28;20382;-82
2022/01/25 01:47:42;;;;;;;;;;;;;;;;;;5060869;28;20482;-82
2022/01/25 01:50:30;;;;;;;;;;;;;;;;;;5064240;28;19935;-82
2022/01/25 01:52:57;;;;;;;;;;;;;;;;;;5068757;28;19928;-82
2022/01/25 01:55:24;;;;;;;;;;;;;;;;;;5066880;28;19928;-82
2022/01/25 01:57:51;;;;;;;;;;;;;;;;;;5065747;28;19943;-82
2022/01/25 02:00:18;;;;;;;;;;;;;;;;;;5064816;28;20267;-82
2022/01/25 02:02:44;;;;;;;;;;;;;;;;;;5059469;28;21453;-82
2022/01/25 02:05:11;;;;;;;;;;;;;;;;;;5048498;28;19987;-82
2022/01/25 02:07:37;;;;;;;;;;;;;;;;;;5047626;28;19933;-82
2022/01/25 02:10:12;;;;;;;;;;;;;;;;;;5051796;28;19955;-82
2022/01/25 02:12:45;;;;;;;;;;;;;;;;;;5082774;28;19920;-82
2022/01/25 02:15:13;;;;;;;;;;;;;;;;;;5061641;28;20006;-82
2022/01/25 02:17:56;;;;;;;;;;;;;;;;;;5061452;28;20013;-82
2022/01/25 02:23:09;;;;;;;;;;;;;;;;;;5067651;28;20393;-82
2022/01/25 02:25:36;;;;;;;;;;;;;;;;;;5064468;28;19928;-82
2022/01/25 02:28:02;;;;;;;;;;;;;;;;;;5051834;28;20294;-82
2022/01/25 02:30:28;;;;;;;;;;;;;;;;;;5062094;28;19935;-82
2022/01/25 02:32:54;;;;;;;;;;;;;;;;;;5068589;28;19930;-82
2022/01/25 02:35:20;;;;;;;;;;;;;;;;;;5067933;28;19931;-82
2022/01/25 02:37:46;;;;;;;;;;;;;;;;;;5048553;28;22394;-82
2022/01/25 02:40:12;;;;;;;;;;;;;;;;;;5069490;28;20397;-83
2022/01/25 02:42:38;;;;;;;;;;;;;;;;;;5043918;28;19924;-82
2022/01/25 02:45:15;;;;;;;;;;;;;;;;;;5052816;28;19938;-82
2022/01/25 02:50:29;;;;;;;;;;;;;;;;;;5062147;28;20427;-82
2022/01/25 02:52:55;;;;;;;;;;;;;;;;;;5053857;28;19924;-82
2022/01/25 02:55:21;;;;;;;;;;;;;;;;;;5067628;28;19934;-82
2022/01/25 02:57:47;;;;;;;;;;;;;;;;;;5061725;28;19931;-82
2022/01/25 03:00:13;;;;;;;;;;;;;;;;;;5064339;28;19924;-82
2022/01/25 03:02:41;;;;;;;;;;;;;;;;;;5080812;28;19940;-82
2022/01/25 03:05:07;;;;;;;;;;;;;;;;;;5084417;28;20010;-82
2022/01/25 03:07:34;;;;;;;;;;;;;;;;;;5081359;28;19923;-82
2022/01/25 03:10:00;;;;;;;;;;;;;;;;;;5047682;28;19936;-82
2022/01/25 03:12:45;;;;;;;;;;;;;;;;;;5045542;28;19971;-82
2022/01/25 03:15:29;;;;;;;;;;;;;;;;;;5036196;28;19917;-83
2022/01/25 03:17:59;;;;;;;;;;;;;;;;;;5035463;28;20807;-82
2022/01/25 03:20:49;;;;;;;;;;;;;;;;;;5033336;28;20202;-82
2022/01/25 03:23:19;;;;;;;;;;;;;;;;;;5044516;28;19924;-82
2022/01/25 03:25:47;;;;;;;;;;;;;;;;;;5025206;28;20637;-82
2022/01/25 03:28:14;;;;;;;;;;;;;;;;;;5042324;28;19925;-82
2022/01/25 03:30:40;;;;;;;;;;;;;;;;;;5022914;28;19928;-82
2022/01/25 03:33:06;;;;;;;;;;;;;;;;;;5041352;28;19924;-82
2022/01/25 03:35:32;;;;;;;;;;;;;;;;;;5036324;28;20279;-82
2022/01/25 03:37:58;;;;;;;;;;;;;;;;;;5026915;28;19935;-82
2022/01/25 03:40:24;;;;;;;;;;;;;;;;;;5026533;28;19932;-82
2022/01/25 03:43:07;;;;;;;;;;;;;;;;;;5016563;28;19921;-82
2022/01/25 03:45:36;;;;;;;;;;;;;;;;;;5007548;28;19936;-82
2022/01/25 03:50:47;;;;;;;;;;;;;;;;;;5024541;28;19929;-83
2022/01/25 03:53:13;;;;;;;;;;;;;;;;;;5026742;28;20007;-82
2022/01/25 03:55:39;;;;;;;;;;;;;;;;;;5023202;28;19935;-82
2022/01/25 03:58:26;;;;;;;;;;;;;;;;;;5028644;28;20106;-82
2022/01/25 04:00:52;;;;;;;;;;;;;;;;;;5048065;28;20299;-82
2022/01/25 04:03:27;;;;;;;;;;;;;;;;;;5044964;28;20570;-82
2022/01/25 04:05:57;;;;;;;;;;;;;;;;;;5044217;28;19932;-82
2022/01/25 04:08:24;;;;;;;;;;;;;;;;;;5028621;28;19932;-83
2022/01/25 04:10:51;;;;;;;;;;;;;;;;;;5031756;28;19932;-82
2022/01/25 04:13:18;;;;;;;;;;;;;;;;;;5031722;28;19930;-83
2022/01/25 04:15:48;;;;;;;;;;;;;;;;;;5064510;28;20080;-82
2022/01/25 04:18:35;;;;;;;;;;;;;;;;;;5066911;28;19924;-82
2022/01/25 04:21:26;;;;;;;;;;;;;;;;;;5069433;28;19997;-82
2022/01/25 04:26:48;;;;;;;;;;;;;;;;;;5060985;28;19935;-82
2022/01/25 04:29:14;;;;;;;;;;;;;;;;;;5066481;28;20275;-82
2022/01/25 04:31:41;;;;;;;;;;;;;;;;;;5044549;28;19928;-82
2022/01/25 04:51:14;;;;;;;;;;;;;;;;;;5020933;28;20118;-83
2022/01/25 04:59:50;;;;;;;;;;;;;;;;;;4947022;28;19926;-82
2022/01/25 05:05:18;;;;;;;;;;;;;;;;;;4967151;28;20170;-81
2022/01/25 05:08:18;;;;;;;;;;;;;;;;;;4969001;28;19981;-81
2022/01/25 05:11:01;;;;;;;;;;;;;;;;;;4959757;28;19979;-82
2022/01/25 05:16:33;;;;;;;;;;;;;;;;;;4983930;28;19925;-83
2022/01/25 05:24:29;;;;;;;;;;;;;;;;;;4986900;28;20007;-82
2022/01/25 05:26:55;;;;;;;;;;;;;;;;;;5005889;28;19925;-82
2022/01/25 05:29:21;;;;;;;;;;;;;;;;;;5002005;28;19936;-82
2022/01/25 05:31:47;;;;;;;;;;;;;;;;;;4997340;28;19929;-83
2022/01/25 05:34:13;;;;;;;;;;;;;;;;;;5006834;28;19929;-83
2022/01/25 05:36:39;;;;;;;;;;;;;;;;;;5019330;28;20302;-83
2022/01/25 05:39:14;;;;;;;;;;;;;;;;;;5023253;28;19946;-83
2022/01/25 05:41:53;;;;;;;;;;;;;;;;;;5019313;28;20027;-82
2022/01/25 05:47:06;;;;;;;;;;;;;;;;;;5006949;28;20327;-83
2022/01/25 05:49:33;;;;;;;;;;;;;;;;;;5003149;28;19929;-83
2022/01/25 05:51:59;;;;;;;;;;;;;;;;;;5008234;28;19929;-82
2022/01/25 05:54:26;;;;;;;;;;;;;;;;;;5005322;28;19921;-81
2022/01/25 05:56:52;;;;;;;;;;;;;;;;;;5012439;28;19929;-83
2022/01/25 05:59:18;;;;;;;;;;;;;;;;;;5064935;28;19976;-84
2022/01/25 06:01:48;;;;;;;;;;;;;;;;;;5031533;28;20015;-82
2022/01/25 06:04:14;;;;;;;;;;;;;;;;;;5049980;28;19981;-81
2022/01/25 06:06:41;;;;;;;;;;;;;;;;;;5042567;28;19946;-84
2022/01/25 06:09:08;;;;;;;;;;;;;;;;;;5057721;28;19942;-82
2022/01/25 06:11:37;;;;;;;;;;;;;;;;;;5064824;28;19993;-86
2022/01/25 06:14:03;;;;;;;;;;;;;;;;;;5066868;28;20011;-85
2022/01/25 06:16:29;;;;;;;;;;;;;;;;;;5060728;28;20582;-85
2022/01/25 06:18:56;;;;;;;;;;;;;;;;;;5059727;28;19982;-83
2022/01/25 06:21:22;;;;;;;;;;;;;;;;;;5046703;28;19928;-85
2022/01/25 06:23:48;;;;;;;;;;;;;;;;;;5044257;28;19974;-85
2022/01/25 06:26:14;;;;;;;;;;;;;;;;;;5061042;28;19924;-85
2022/01/25 06:28:41;;;;;;;;;;;;;;;;;;5040858;28;19943;-85
2022/01/25 06:31:08;;;;;;;;;;;;;;;;;;5052871;28;19978;-85
2022/01/25 06:33:34;;;;;;;;;;;;;;;;;;5059630;28;19927;-85
2022/01/25 06:36:01;;;;;;;;;;;;;;;;;;5062254;28;20278;-85
2022/01/25 06:38:27;;;;;;;;;;;;;;;;;;5046769;28;20021;-85
2022/01/25 06:40:54;;;;;;;;;;;;;;;;;;5049132;28;19951;-85
2022/01/25 06:43:21;;;;;;;;;;;;;;;;;;5060990;28;20293;-85
2022/01/25 06:45:56;;;;;;;;;;;;;;;;;;5064578;28;20032;-85
2022/01/25 06:48:23;;;;;;;;;;;;;;;;;;5062249;28;19932;-85
2022/01/25 06:50:49;;;;;;;;;;;;;;;;;;5042518;28;19924;-85
2022/01/25 06:53:15;;;;;;;;;;;;;;;;;;5062014;28;20379;-85
2022/01/25 06:55:41;;;;;;;;;;;;;;;;;;5059398;28;19925;-85
2022/01/25 06:58:08;;;;;;;;;;;;;;;;;;5061393;28;19924;-85
2022/01/25 07:00:34;;;;;;;;;;;;;;;;;;5041966;28;19922;-85
2022/01/25 07:03:00;;;;;;;;;;;;;;;;;;5063594;28;19927;-85
2022/01/25 07:05:26;;;;;;;;;;;;;;;;;;5056047;28;19960;-84
2022/01/25 07:07:52;;;;;;;;;;;;;;;;;;5065140;28;19932;-85
2022/01/25 07:10:19;;;;;;;;;;;;;;;;;;5066650;28;19932;-85
2022/01/25 07:12:45;;;;;;;;;;;;;;;;;;5047622;28;19927;-84
2022/01/25 07:15:21;;;;;;;;;;;;;;;;;;5057454;28;19927;-83
2022/01/25 07:17:53;;;;;;;;;;;;;;;;;;5037505;28;19966;-83
2022/01/25 07:20:19;;;;;;;;;;;;;;;;;;5085670;28;19924;-83
2022/01/25 07:22:45;;;;;;;;;;;;;;;;;;5053489;28;20797;-84
2022/01/25 07:25:12;;;;;;;;;;;;;;;;;;5051294;28;20010;-85
2022/01/25 07:27:44;;;;;;;;;;;;;;;;;;5082519;27;19998;-84
2022/01/25 07:30:10;;;;;;;;;;;;;;;;;;5066554;28;19926;-85
2022/01/25 07:32:37;;;;;;;;;;;;;;;;;;5064837;28;19927;-85
2022/01/25 07:35:03;;;;;;;;;;;;;;;;;;5070783;28;19931;-85
2022/01/25 07:37:45;;;;;;;;;;;;;;;;;;5084993;28;19966;-85
2022/01/25 07:40:12;;;;;;;;;;;;;;;;;;5060087;28;19926;-85
2022/01/25 07:42:41;;;;;;;;;;;;;;;;;;5070071;28;19937;-84
2022/01/25 07:45:10;;;;;;;;;;;;;;;;;;5074893;28;19924;-85
2022/01/25 07:47:36;;;;;;;;;;;;;;;;;;5056240;28;20294;-85
2022/01/25 07:50:03;;;;;;;;;;;;;;;;;;5060985;28;19919;-85
2022/01/25 07:52:29;;;;;;;;;;;;;;;;;;5058196;28;19927;-85
2022/01/25 07:54:55;;;;;;;;;;;;;;;;;;5059976;28;19924;-85
2022/01/25 07:57:22;;;;;;;;;;;;;;;;;;5080333;28;20404;-86
2022/01/25 07:59:48;;;;;;;;;;;;;;;;;;5066461;28;20020;-85
2022/01/25 08:02:14;;;;;;;;;;;;;;;;;;5058463;28;20052;-86
2022/01/25 08:04:41;;;;;;;;;;;;;;;;;;5091130;27;19928;-85
2022/01/25 08:07:07;;;;;;;;;;;;;;;;;;5073655;28;20393;-86
2022/01/25 08:09:33;;;;;;;;;;;;;;;;;;5065639;28;19995;-83
2022/01/25 08:11:59;;;;;;;;;;;;;;;;;;5068332;28;19920;-84
2022/01/25 08:14:26;;;;;;;;;;;;;;;;;;5071496;28;19932;-84
2022/01/25 08:16:52;;;;;;;;;;;;;;;;;;5071142;28;19931;-84
2022/01/25 08:19:18;;;;;;;;;;;;;;;;;;5074348;28;19923;-83
2022/01/25 08:21:44;;;;;;;;;;;;;;;;;;5074123;28;20409;-83
2022/01/25 08:24:11;;;;;;;;;;;;;;;;;;5073902;28;19920;-83
2022/01/25 08:26:38;;;;;;;;;;;;;;;;;;5075588;28;19966;-83
2022/01/25 08:29:04;;;;;;;;;;;;;;;;;;5075489;28;19928;-84
2022/01/25 08:31:30;;;;;;;;;;;;;;;;;;5072508;28;19924;-83
2022/01/25 08:33:56;;;;;;;;;;;;;;;;;;5070631;28;19924;-83
2022/01/25 08:36:23;;;;;;;;;;;;;;;;;;5058900;28;20397;-83
2022/01/25 08:38:51;;;;;;;;;;;;;;;;;;5075063;28;20369;-84
2022/01/25 08:41:17;;;;;;;;;;;;;;;;;;5058831;28;19924;-84
2022/01/25 08:43:45;;;;;;;;;;;;;;;;;;5073920;28;20321;-83
2022/01/25 08:46:12;;;;;;;;;;;;;;;;;;5076639;28;19935;-83
2022/01/25 08:48:38;;;;;;;;;;;;;;;;;;5078127;28;19930;-83
2022/01/25 08:51:04;;;;;;;;;;;;;;;;;;5071784;28;21222;-83
2022/01/25 08:53:31;;;;;;;;;;;;;;;;;;5073656;28;19924;-83
2022/01/25 08:55:57;;;;;;;;;;;;;;;;;;5077609;28;19924;-83
2022/01/25 08:58:23;;;;;;;;;;;;;;;;;;5078371;28;19932;-84
2022/01/25 09:00:49;;;;;;;;;;;;;;;;;;5077598;28;19931;-84
2022/01/25 09:03:15;;;;;;;;;;;;;;;;;;5076868;28;19974;-84
2022/01/25 09:05:41;;;;;;;;;;;;;;;;;;5069008;28;20336;-83
2022/01/25 09:08:07;;;;;;;;;;;;;;;;;;5076002;28;19979;-83
2022/01/25 09:10:33;;;;;;;;;;;;;;;;;;5061048;28;19928;-83
2022/01/25 09:13:03;;;;;;;;;;;;;;;;;;5078859;28;19928;-83
2022/01/25 09:15:30;;;;;;;;;;;;;;;;;;5053366;28;19921;-83
2022/01/25 09:17:57;;;;;;;;;;;;;;;;;;5042531;28;19924;-84
2022/01/25 09:20:23;;;;;;;;;;;;;;;;;;5061801;28;19927;-84
2022/01/25 09:22:49;;;;;;;;;;;;;;;;;;5055888;28;19924;-83
2022/01/25 09:25:15;;;;;;;;;;;;;;;;;;5059110;28;19924;-84
2022/01/25 09:27:41;;;;;;;;;;;;;;;;;;5056131;28;20212;-83
2022/01/25 09:30:07;;;;;;;;;;;;;;;;;;5061078;28;20038;-84
2022/01/25 09:32:33;;;;;;;;;;;;;;;;;;5070670;28;20097;-84
2022/01/25 09:35:00;;;;;;;;;;;;;;;;;;5077044;28;19993;-84
2022/01/25 09:37:27;;;;;;;;;;;;;;;;;;5055732;28;19920;-84
2022/01/25 09:39:54;;;;;;;;;;;;;;;;;;5061671;28;20349;-84
2022/01/25 09:42:21;;;;;;;;;;;;;;;;;;5061592;28;19924;-84
2022/01/25 09:44:48;;;;;;;;;;;;;;;;;;5055090;28;22217;-83
2022/01/25 09:47:14;;;;;;;;;;;;;;;;;;5049860;28;20397;-83
2022/01/25 09:49:55;;;;;;;;;;;;;;;;;;5037897;28;20271;-84
2022/01/25 09:52:22;;;;;;;;;;;;;;;;;;5037891;28;19931;-83
2022/01/25 09:54:48;;;;;;;;;;;;;;;;;;5053067;28;20438;-83
2022/01/25 09:57:14;;;;;;;;;;;;;;;;;;5018409;28;20015;-84
2022/01/25 09:59:40;;;;;;;;;;;;;;;;;;5017790;28;19960;-84
2022/01/25 10:02:06;;;;;;;;;;;;;;;;;;5024014;28;20015;-84
2022/01/25 10:04:36;;;;;;;;;;;;;;;;;;5051986;28;19931;-84
2022/01/25 10:07:04;;;;;;;;;;;;;;;;;;5057627;28;19935;-83
2022/01/25 10:09:30;;;;;;;;;;;;;;;;;;5063603;28;19924;-83
2022/01/25 10:11:57;;;;;;;;;;;;;;;;;;5076501;28;19920;-83
2022/01/25 10:14:25;;;;;;;;;;;;;;;;;;5068843;28;19924;-83
2022/01/25 10:16:52;;;;;;;;;;;;;;;;;;5056777;28;20266;-83
2022/01/25 10:19:18;;;;;;;;;;;;;;;;;;5073186;28;20027;-83
2022/01/25 10:21:48;;;;;;;;;;;;;;;;;;5052109;28;19928;-83
2022/01/25 10:24:16;;;;;;;;;;;;;;;;;;5079365;28;19977;-84
2022/01/25 10:26:42;;;;;;;;;;;;;;;;;;5052258;28;19924;-84
2022/01/25 10:29:08;;;;;;;;;;;;;;;;;;5058170;28;20420;-83
2022/01/25 10:31:34;;;;;;;;;;;;;;;;;;5075587;28;19928;-84
2022/01/25 10:34:00;;;;;;;;;;;;;;;;;;5074743;28;20375;-84
2022/01/25 10:36:26;;;;;;;;;;;;;;;;;;5053704;28;19924;-84
2022/01/25 10:39:02;;;;;;;;;;;;;;;;;;5073718;28;20390;-85
2022/01/25 10:41:31;;;;;;;;;;;;;;;;;;5067490;28;20018;-82
2022/01/25 10:43:57;;;;;;;;;;;;;;;;;;5069383;28;20007;-83
2022/01/25 10:46:27;;;;;;;;;;;;;;;;;;5053580;28;19927;-83
2022/01/25 10:48:54;;;;;;;;;;;;;;;;;;5070994;28;19924;-84
2022/01/25 10:51:21;;;;;;;;;;;;;;;;;;5070622;28;20062;-84
2022/01/25 10:53:48;;;;;;;;;;;;;;;;;;5054121;28;20113;-84
2022/01/25 10:56:14;;;;;;;;;;;;;;;;;;5077492;28;20290;-84
2022/01/25 10:58:40;;;;;;;;;;;;;;;;;;5069778;28;19931;-84
2022/01/25 11:01:06;;;;;;;;;;;;;;;;;;5073081;28;19916;-84
2022/01/25 11:03:32;;;;;;;;;;;;;;;;;;5068729;28;20058;-84
2022/01/25 11:05:59;;;;;;;;;;;;;;;;;;5073829;28;20311;-84
2022/01/25 11:08:27;;;;;;;;;;;;;;;;;;5081525;28;19928;-84
2022/01/25 11:11:03;;;;;;;;;;;;;;;;;;5097085;28;20369;-84
2022/01/25 11:15:56;;;;;;;;;;;;;;;;;;5102259;28;19924;-85
2022/01/25 11:18:22;;;;;;;;;;;;;;;;;;5083413;28;19920;-84
2022/01/25 11:20:49;;;;;;;;;;;;;;;;;;5072028;28;19919;-84
2022/01/25 11:23:17;;;;;;;;;;;;;;;;;;5079109;28;19939;-84
2022/01/25 11:25:42;;;;;;;;;;;;;;;;;;5059871;28;20014;-84
2022/01/25 11:28:08;;;;;;;;;;;;;;;;;;5062103;28;20010;-84
2022/01/25 11:30:37;;;;;;;;;;;;;;;;;;5075554;28;19923;-84
2022/01/25 11:33:05;;;;;;;;;;;;;;;;;;5079055;28;19919;-80
2022/01/25 11:35:35;;;;;;;;;;;;;;;;;;5089641;27;19924;-83
2022/01/25 11:38:02;;;;;;;;;;;;;;;;;;5063066;28;19924;-83
2022/01/25 11:40:30;;;;;;;;;;;;;;;;;;5074700;28;19927;-84
2022/01/25 11:42:57;;;;;;;;;;;;;;;;;;5081361;28;19919;-84
2022/01/25 11:45:23;;;;;;;;;;;;;;;;;;5077754;28;19927;-84
2022/01/25 11:47:50;;;;;;;;;;;;;;;;;;5071093;28;19990;-84
2022/01/25 11:50:16;;;;;;;;;;;;;;;;;;5062262;28;19932;-84
2022/01/25 11:52:42;;;;;;;;;;;;;;;;;;5061873;28;20068;-84
2022/01/25 11:55:08;;;;;;;;;;;;;;;;;;5074473;27;20370;-84
2022/01/25 11:57:34;;;;;;;;;;;;;;;;;;5054336;28;19919;-84
2022/01/25 12:00:01;;;;;;;;;;;;;;;;;;5063047;27;20240;-84
2022/01/25 12:02:36;;;;;;;;;;;;;;;;;;5095480;28;20022;-84
2022/01/25 12:05:02;;;;;;;;;;;;;;;;;;5080502;28;19972;-84
2022/01/25 12:07:35;;;;;;;;;;;;;;;;;;5071983;28;19928;-84
2022/01/25 12:10:13;;;;;;;;;;;;;;;;;;5069471;28;20018;-84
2022/01/25 12:12:41;;;;;;;;;;;;;;;;;;5074342;28;20381;-83
2022/01/25 12:15:07;;;;;;;;;;;;;;;;;;5071624;28;20673;-84
2022/01/25 12:17:35;;;;;;;;;;;;;;;;;;5052626;28;19972;-84
2022/01/25 12:20:03;;;;;;;;;;;;;;;;;;5052771;28;20411;-84
2022/01/25 12:22:42;;;;;;;;;;;;;;;;;;5054188;28;19927;-84
2022/01/25 12:25:19;;;;;;;;;;;;;;;;;;5074519;28;19920;-84
2022/01/25 12:27:50;;;;;;;;;;;;;;;;;;5064946;28;19932;-84
2022/01/25 12:30:17;;;;;;;;;;;;;;;;;;5071385;28;20405;-84
2022/01/25 12:32:43;;;;;;;;;;;;;;;;;;5050195;28;20550;-84
2022/01/25 12:35:09;;;;;;;;;;;;;;;;;;5059338;28;19920;-84
2022/01/25 12:37:35;;;;;;;;;;;;;;;;;;5071298;28;19927;-84
2022/01/25 12:40:01;;;;;;;;;;;;;;;;;;5076612;28;20326;-83
2022/01/25 12:42:27;;;;;;;;;;;;;;;;;;5054416;28;19928;-84
2022/01/25 12:44:56;;;;;;;;;;;;;;;;;;5073356;28;19930;-84
2022/01/25 12:47:22;;;;;;;;;;;;;;;;;;5069603;28;19928;-84
2022/01/25 12:49:49;;;;;;;;;;;;;;;;;;5067479;28;19920;-84
2022/01/25 12:52:17;;;;;;;;;;;;;;;;;;5056489;28;19982;-84
2022/01/25 12:54:53;;;;;;;;;;;;;;;;;;5071659;28;20382;-84
2022/01/25 12:57:19;;;;;;;;;;;;;;;;;;5071146;28;19920;-83
2022/01/25 12:59:45;;;;;;;;;;;;;;;;;;5050522;28;21957;-83
2022/01/25 13:02:11;;;;;;;;;;;;;;;;;;5069282;28;19931;-84
2022/01/25 13:04:37;;;;;;;;;;;;;;;;;;5067103;28;20019;-84
2022/01/25 13:07:04;;;;;;;;;;;;;;;;;;5069725;28;20683;-84
2022/01/25 13:09:41;;;;;;;;;;;;;;;;;;5068622;28;19932;-84
2022/01/25 13:12:26;;;;;;;;;;;;;;;;;;5066576;28;20078;-84
2022/01/25 13:17:38;;;;;;;;;;;;;;;;;;5069071;28;19924;-83
2022/01/25 13:20:04;;;;;;;;;;;;;;;;;;5071471;28;19963;-84
2022/01/25 13:22:34;;;;;;;;;;;;;;;;;;5047748;28;20304;-84
2022/01/25 13:27:35;;;;;;;;;;;;;;;;;;5066730;28;19924;-83
2022/01/25 13:32:55;;;;;;;;;;;;;;;;;;5071764;28;19921;-84
2022/01/25 13:38:06;;;;;;;;;;;;;;;;;;5071815;28;19924;-84
2022/01/25 13:45:49;;;;;;;;;;;;;;;;;;5069591;28;19920;-84
2022/01/25 13:48:15;;;;;;;;;;;;;;;;;;5075433;28;19924;-83
2022/01/25 13:50:41;;;;;;;;;;;;;;;;;;5069820;28;20228;-83
2022/01/25 13:53:07;;;;;;;;;;;;;;;;;;5071974;28;20246;-83
2022/01/25 13:55:33;;;;;;;;;;;;;;;;;;5067365;28;19931;-83
2022/01/25 13:57:59;;;;;;;;;;;;;;;;;;5069038;28;19924;-83
2022/01/25 14:00:25;;;;;;;;;;;;;;;;;;5073362;28;20208;-84
2022/01/25 14:02:51;;;;;;;;;;;;;;;;;;5073161;28;19928;-83
2022/01/25 14:05:17;;;;;;;;;;;;;;;;;;5074531;28;20062;-83
2022/01/25 14:07:43;;;;;;;;;;;;;;;;;;5068036;28;20358;-84
2022/01/25 14:10:12;;;;;;;;;;;;;;;;;;5066380;28;19974;-83
2022/01/25 14:23:38;;;;;;;;;;;;;;;;;;5067811;28;19924;-83
2022/01/25 14:26:04;;;;;;;;;;;;;;;;;;5060400;28;20264;-83
2022/01/25 14:28:38;;;;;;;;;;;;;;;;;;5055318;28;19924;-84
2022/01/25 14:31:04;;;;;;;;;;;;;;;;;;5055836;28;20387;-83
2022/01/25 14:33:32;;;;;;;;;;;;;;;;;;5052540;28;19963;-83
2022/01/25 14:36:04;;;;;;;;;;;;;;;;;;5074453;28;19924;-83
2022/01/25 14:38:52;;;;;;;;;;;;;;;;;;5073009;28;19920;-83
2022/01/25 14:41:18;;;;;;;;;;;;;;;;;;5071152;28;20034;-82
2022/01/25 14:43:47;;;;;;;;;;;;;;;;;;5062206;28;20424;-82
2022/01/25 14:46:14;;;;;;;;;;;;;;;;;;5068732;28;19984;-82
2022/01/25 14:48:41;;;;;;;;;;;;;;;;;;5064253;28;19924;-82
2022/01/25 14:51:11;;;;;;;;;;;;;;;;;;5051616;28;20377;-82
2022/01/25 14:53:38;;;;;;;;;;;;;;;;;;5067270;28;19964;-83
2022/01/25 14:56:05;;;;;;;;;;;;;;;;;;5053961;28;19928;-82
2022/01/25 15:01:17;;;;;;;;;;;;;;;;;;5069913;28;19935;-83
2022/01/25 15:03:44;;;;;;;;;;;;;;;;;;5062670;28;19977;-84
2022/01/25 15:06:10;;;;;;;;;;;;;;;;;;5071627;28;19931;-83
2022/01/25 15:08:37;;;;;;;;;;;;;;;;;;5067796;28;20279;-83
2022/01/25 15:11:03;;;;;;;;;;;;;;;;;;5056986;28;19944;-83
2022/01/25 15:13:30;;;;;;;;;;;;;;;;;;5070815;28;19919;-84
2022/01/25 15:15:56;;;;;;;;;;;;;;;;;;5060251;28;19927;-83
2022/01/25 15:18:23;;;;;;;;;;;;;;;;;;5071685;28;20435;-84
2022/01/25 15:20:49;;;;;;;;;;;;;;;;;;5050337;28;19920;-84
2022/01/25 15:23:20;;;;;;;;;;;;;;;;;;5071931;28;19972;-83
2022/01/25 15:25:47;;;;;;;;;;;;;;;;;;5066952;28;19928;-83
2022/01/25 15:28:16;;;;;;;;;;;;;;;;;;5054798;28;20072;-83
2022/01/25 15:30:42;;;;;;;;;;;;;;;;;;5063035;28;20310;-84
2022/01/25 15:33:10;;;;;;;;;;;;;;;;;;5086856;28;19984;-84
2022/01/25 15:35:37;;;;;;;;;;;;;;;;;;5066269;28;20040;-84
2022/01/25 15:38:03;;;;;;;;;;;;;;;;;;5073549;28;19923;-83
2022/01/25 15:40:44;;;;;;;;;;;;;;;;;;5048572;28;19974;-83
2022/01/25 15:43:30;;;;;;;;;;;;;;;;;;4989070;28;19928;-84
2022/01/25 15:46:56;;;;;;;;;;;;;;;;;;5004383;28;19934;-83
2022/01/25 15:49:09;;;;;;;;;;;;;;;;;;4993821;28;19929;-83
2022/01/25 15:51:35;;;;;;;;;;;;;;;;;;4974115;28;19960;-84
2022/01/25 15:54:02;;;;;;;;;;;;;;;;;;5002257;28;20370;-83
2022/01/25 15:56:28;;;;;;;;;;;;;;;;;;4970298;28;19925;-83
2022/01/25 15:58:54;;;;;;;;;;;;;;;;;;5002133;28;19968;-83
2022/01/25 16:01:20;;;;;;;;;;;;;;;;;;4980300;28;19920;-83
2022/01/25 16:03:47;;;;;;;;;;;;;;;;;;4995789;28;19934;-83
2022/01/25 16:06:13;;;;;;;;;;;;;;;;;;4989942;28;19963;-83
2022/01/25 16:08:54;;;;;;;;;;;;;;;;;;4989416;28;19934;-83
2022/01/25 16:11:23;;;;;;;;;;;;;;;;;;4999450;28;20391;-82
2022/01/25 16:14:02;;;;;;;;;;;;;;;;;;5031483;28;20005;-84
2022/01/25 16:16:28;;;;;;;;;;;;;;;;;;4993472;28;19978;-84
2022/01/25 16:18:55;;;;;;;;;;;;;;;;;;5029901;28;20023;-84
2022/01/25 16:21:21;;;;;;;;;;;;;;;;;;5014225;28;19925;-84
2022/01/25 16:23:47;;;;;;;;;;;;;;;;;;5041566;28;19929;-84
2022/01/25 16:26:13;;;;;;;;;;;;;;;;;;5027527;28;20284;-84
2022/01/25 16:28:40;;;;;;;;;;;;;;;;;;5029006;28;19960;-84
2022/01/25 16:31:16;;;;;;;;;;;;;;;;;;5046285;28;19932;-84
2022/01/25 16:33:43;;;;;;;;;;;;;;;;;;5040786;28;19956;-84
2022/01/25 16:36:09;;;;;;;;;;;;;;;;;;5026565;28;20272;-83
2022/01/25 16:38:35;;;;;;;;;;;;;;;;;;5009962;28;19966;-84
2022/01/25 16:41:02;;;;;;;;;;;;;;;;;;5046577;28;19928;-84
2022/01/25 16:43:28;;;;;;;;;;;;;;;;;;5029662;28;20375;-85
2022/01/25 16:45:58;;;;;;;;;;;;;;;;;;5037192;28;19927;-84
2022/01/25 16:48:25;;;;;;;;;;;;;;;;;;5052352;28;19928;-84
2022/01/25 16:50:51;;;;;;;;;;;;;;;;;;5037400;28;19939;-84
2022/01/25 16:53:17;;;;;;;;;;;;;;;;;;5050528;28;22720;-84
2022/01/25 16:55:43;;;;;;;;;;;;;;;;;;5065712;28;19929;-86
2022/01/25 16:58:12;;;;;;;;;;;;;;;;;;5062178;28;19929;-83
2022/01/25 17:00:40;;;;;;;;;;;;;;;;;;5064554;28;20561;-84
2022/01/25 17:03:06;;;;;;;;;;;;;;;;;;5072676;28;20302;-85
2022/01/25 17:05:32;;;;;;;;;;;;;;;;;;5050490;28;19924;-86
2022/01/25 17:07:58;;;;;;;;;;;;;;;;;;5033069;28;20393;-84
2022/01/25 17:10:24;;;;;;;;;;;;;;;;;;5044525;28;20001;-85
2022/01/25 17:12:54;;;;;;;;;;;;;;;;;;5072376;28;19929;-84
2022/01/25 17:15:22;;;;;;;;;;;;;;;;;;5054949;28;20297;-84
2022/01/25 17:17:51;;;;;;;;;;;;;;;;;;5063702;28;19936;-84
2022/01/25 17:20:19;;;;;;;;;;;;;;;;;;5063607;28;20286;-84
2022/01/25 17:22:47;;;;;;;;;;;;;;;;;;5052346;28;20851;-84
2022/01/25 17:25:13;;;;;;;;;;;;;;;;;;5067076;28;20094;-84
2022/01/25 17:27:59;;;;;;;;;;;;;;;;;;5067119;28;19952;-85
2022/01/25 17:30:26;;;;;;;;;;;;;;;;;;5053733;28;19924;-84
2022/01/25 17:32:53;;;;;;;;;;;;;;;;;;5048884;28;19927;-84
2022/01/25 17:35:20;;;;;;;;;;;;;;;;;;5051364;28;19928;-85
2022/01/25 17:37:59;;;;;;;;;;;;;;;;;;5061745;28;20026;-87
2022/01/25 17:40:26;;;;;;;;;;;;;;;;;;5064349;28;20015;-85
2022/01/25 17:42:52;;;;;;;;;;;;;;;;;;5065110;28;19924;-85
2022/01/25 17:45:20;;;;;;;;;;;;;;;;;;5065876;28;20006;-83
2022/01/25 17:47:46;;;;;;;;;;;;;;;;;;5061011;28;19932;-83
2022/01/25 17:50:12;;;;;;;;;;;;;;;;;;5061794;28;19931;-87
2022/01/25 17:52:38;;;;;;;;;;;;;;;;;;5044631;28;19931;-84
2022/01/25 17:55:04;;;;;;;;;;;;;;;;;;5064438;28;19928;-86
2022/01/25 17:57:30;;;;;;;;;;;;;;;;;;5062265;28;19924;-87
2022/01/25 18:00:02;;;;;;;;;;;;;;;;;;5066281;28;20813;-86
2022/01/25 18:02:30;;;;;;;;;;;;;;;;;;5053502;28;19935;-87
2022/01/25 18:04:57;;;;;;;;;;;;;;;;;;5061089;28;19948;-83
2022/01/25 18:07:23;;;;;;;;;;;;;;;;;;5068871;28;19960;-84
2022/01/25 18:09:49;;;;;;;;;;;;;;;;;;5063085;27;20019;-83
2022/01/25 18:12:15;;;;;;;;;;;;;;;;;;5051615;28;19935;-81
2022/01/25 18:14:41;;;;;;;;;;;;;;;;;;5064909;27;19935;-84
2022/01/25 18:17:09;;;;;;;;;;;;;;;;;;5084118;27;20427;-82
2022/01/25 18:19:36;;;;;;;;;;;;;;;;;;5064131;28;19924;-83
2022/01/25 18:22:03;;;;;;;;;;;;;;;;;;5066429;28;20003;-84
2022/01/25 18:24:36;;;;;;;;;;;;;;;;;;5050979;28;19923;-85
2022/01/25 18:27:04;;;;;;;;;;;;;;;;;;5069682;28;20315;-84
2022/01/25 18:29:31;;;;;;;;;;;;;;;;;;5053552;28;20271;-86
2022/01/25 18:31:57;;;;;;;;;;;;;;;;;;5069996;28;20331;-82
2022/01/25 18:34:23;;;;;;;;;;;;;;;;;;5073117;28;19919;-82
2022/01/25 18:36:52;;;;;;;;;;;;;;;;;;5070848;28;19942;-81
2022/01/25 18:39:18;;;;;;;;;;;;;;;;;;5070971;28;19928;-84
2022/01/25 18:41:44;;;;;;;;;;;;;;;;;;5064509;28;19920;-85
2022/01/25 18:44:10;;;;;;;;;;;;;;;;;;5054324;28;19931;-84
2022/01/25 18:46:36;;;;;;;;;;;;;;;;;;5062563;28;19927;-84
2022/01/25 18:49:04;;;;;;;;;;;;;;;;;;5056511;28;19919;-85
2022/01/25 18:51:31;;;;;;;;;;;;;;;;;;5068943;28;19920;-88
2022/01/25 18:53:58;;;;;;;;;;;;;;;;;;5077905;28;19965;-86
2022/01/25 18:56:24;;;;;;;;;;;;;;;;;;5053516;28;19928;-86
2022/01/25 18:58:59;;;;;;;;;;;;;;;;;;5070910;28;19919;-86
2022/01/25 19:01:37;;;;;;;;;;;;;;;;;;5086176;28;19935;-88
2022/01/25 19:04:04;;;;;;;;;;;;;;;;;;5072967;28;20631;-85
2022/01/25 19:06:30;;;;;;;;;;;;;;;;;;5065192;28;19928;-86
2022/01/25 19:08:57;;;;;;;;;;;;;;;;;;5058025;28;19927;-83